Time;durP1;ratioP1;P1;durP2;ratioP2;P2;SDS_P1;SDS_P2;PMS_P1;PMS_P2;Temp;Humidity;BMP_temperature;BMP_pressure;BME280_temperature;BME280_humidity;BME280_pressure;Samples;Min_cycle;Max_cycle;Signal;HPM_P1;HPM_P2
2021/10/25 00:01:56;;;;;;;6.28;3.65;;;7.80;99.90;;;;;;5076138;28;20056;-85
2021/10/25 00:04:22;;;;;;;5.72;3.45;;;7.60;99.90;;;;;;5058133;28;20021;-86
2021/10/25 00:06:48;;;;;;;6.10;3.83;;;7.80;99.90;;;;;;5076056;28;20029;-85
2021/10/25 00:09:14;;;;;;;5.55;3.85;;;8.00;99.90;;;;;;5041470;28;20082;-85
2021/10/25 00:11:41;;;;;;;5.30;3.00;;;7.70;99.90;;;;;;5057942;28;20025;-85
2021/10/25 00:14:07;;;;;;;8.73;3.95;;;7.30;99.90;;;;;;5058425;28;20026;-86
2021/10/25 00:16:33;;;;;;;5.43;3.67;;;7.90;99.90;;;;;;5058470;28;20031;-85
2021/10/25 00:18:58;;;;;;;4.70;3.22;;;8.20;99.90;;;;;;5058129;28;20373;-85
2021/10/25 00:21:24;;;;;;;5.35;3.60;;;7.90;99.90;;;;;;5057794;28;20024;-85
2021/10/25 00:23:50;;;;;;;6.22;3.47;;;8.00;99.90;;;;;;5057783;28;20077;-85
2021/10/25 00:26:16;;;;;;;5.63;3.28;;;7.40;99.90;;;;;;5075799;28;20494;-85
2021/10/25 00:28:41;;;;;;;8.27;3.67;;;7.00;99.90;;;;;;5057648;28;20020;-85
2021/10/25 00:31:07;;;;;;;7.63;4.00;;;6.90;99.90;;;;;;5057502;28;20028;-85
2021/10/25 00:33:34;;;;;;;4.55;2.90;;;6.80;99.90;;;;;;5074547;28;20024;-85
2021/10/25 00:35:59;;;;;;;5.75;3.08;;;7.30;99.90;;;;;;5057607;28;20115;-85
2021/10/25 00:38:25;;;;;;;5.15;3.22;;;7.90;99.90;;;;;;5057542;28;20111;-85
2021/10/25 00:40:52;;;;;;;6.00;3.22;;;7.50;99.90;;;;;;5075509;28;20036;-85
2021/10/25 00:43:18;;;;;;;6.03;3.50;;;7.60;99.90;;;;;;5075484;28;20472;-85
2021/10/25 00:45:44;;;;;;;5.63;3.70;;;7.40;99.90;;;;;;5075312;28;20036;-85
2021/10/25 00:48:10;;;;;;;5.88;3.00;;;6.80;99.90;;;;;;5075446;28;20107;-85
2021/10/25 00:50:37;;;;;;;5.85;3.60;;;6.60;99.90;;;;;;5057245;28;20431;-85
2021/10/25 00:53:03;;;;;;;6.65;3.28;;;6.80;99.90;;;;;;5057340;28;20516;-85
2021/10/25 00:55:29;;;;;;;4.35;2.80;;;6.90;99.90;;;;;;5057232;28;20115;-85
2021/10/25 00:57:56;;;;;;;4.50;3.10;;;7.30;99.90;;;;;;5057342;28;20074;-85
2021/10/25 01:00:22;;;;;;;5.60;2.70;;;7.30;99.90;;;;;;5056987;28;20052;-85
2021/10/25 01:02:48;;;;;;;5.03;2.83;;;7.20;99.90;;;;;;5057173;28;20032;-85
2021/10/25 01:05:14;;;;;;;5.13;2.55;;;7.20;99.90;;;;;;5056953;28;20029;-85
2021/10/25 01:07:40;;;;;;;4.43;3.00;;;7.70;99.90;;;;;;5057046;28;20073;-85
2021/10/25 01:10:07;;;;;;;4.32;2.92;;;7.50;99.90;;;;;;5056929;28;20440;-85
2021/10/25 01:12:34;;;;;;;5.07;2.85;;;7.50;99.90;;;;;;5056770;28;20025;-85
2021/10/25 01:15:00;;;;;;;4.38;2.92;;;7.60;99.90;;;;;;5056801;28;20544;-85
2021/10/25 01:17:27;;;;;;;6.32;2.75;;;7.50;99.90;;;;;;5056804;28;20021;-85
2021/10/25 01:19:54;;;;;;;4.47;2.95;;;7.70;99.90;;;;;;5056828;28;20109;-85
2021/10/25 01:22:24;;;;;;;5.55;3.10;;;7.70;99.90;;;;;;5056715;28;20035;-85
2021/10/25 01:24:52;;;;;;;4.95;2.83;;;7.70;99.90;;;;;;5056714;28;20403;-85
2021/10/25 01:27:19;;;;;;;3.78;2.55;;;7.40;99.90;;;;;;5056643;28;20029;-85
2021/10/25 01:29:45;;;;;;;3.80;2.65;;;7.40;99.90;;;;;;5056517;28;20375;-85
2021/10/25 01:32:11;;;;;;;8.73;3.03;;;7.30;99.90;;;;;;5074918;28;20025;-85
2021/10/25 01:34:36;;;;;;;5.28;2.70;;;7.30;99.90;;;;;;5056360;28;20024;-85
2021/10/25 01:37:05;;;;;;;6.07;2.92;;;7.00;99.90;;;;;;5074571;28;20017;-85
2021/10/25 01:39:31;;;;;;;10.48;3.85;;;6.70;99.90;;;;;;5056362;28;20389;-85
2021/10/25 01:41:57;;;;;;;5.93;3.05;;;6.50;99.90;;;;;;5056356;28;20536;-85
2021/10/25 01:44:24;;;;;;;3.92;2.97;;;6.50;99.90;;;;;;5056216;28;20052;-85
2021/10/25 01:46:50;;;;;;;5.50;3.22;;;6.40;99.90;;;;;;5074163;28;20498;-85
2021/10/25 01:49:15;;;;;;;3.45;2.30;;;6.70;99.90;;;;;;5056050;28;20115;-85
2021/10/25 01:51:41;;;;;;;5.28;2.53;;;7.20;99.90;;;;;;5056027;28;20479;-85
2021/10/25 01:54:08;;;;;;;4.40;2.60;;;7.80;99.90;;;;;;5074025;28;20027;-85
2021/10/25 01:56:37;;;;;;;3.90;2.70;;;7.40;99.90;;;;;;5056820;28;20484;-85
2021/10/25 01:59:06;;;;;;;3.78;2.58;;;7.60;99.90;;;;;;5056052;28;20101;-85
2021/10/25 02:01:32;;;;;;;4.55;2.83;;;7.70;99.90;;;;;;5073993;28;20020;-85
2021/10/25 02:03:58;;;;;;;4.43;2.65;;;7.70;99.90;;;;;;5055937;28;20322;-85
2021/10/25 02:06:24;;;;;;;6.28;2.63;;;7.70;99.90;;;;;;5055769;28;20033;-85
2021/10/25 02:08:50;;;;;;;4.78;2.90;;;7.60;99.90;;;;;;5055792;28;20553;-85
2021/10/25 02:11:16;;;;;;;4.03;2.50;;;7.20;99.90;;;;;;5055655;28;20063;-85
2021/10/25 02:13:43;;;;;;;3.75;2.53;;;6.60;99.90;;;;;;5055609;28;20031;-85
2021/10/25 02:16:09;;;;;;;5.68;2.70;;;6.70;99.90;;;;;;5055676;28;20017;-85
2021/10/25 02:18:35;;;;;;;7.05;2.83;;;6.90;99.90;;;;;;5055522;28;20059;-85
2021/10/25 02:21:00;;;;;;;4.93;2.72;;;7.20;99.90;;;;;;5055571;28;20056;-85
2021/10/25 02:23:26;;;;;;;3.75;2.50;;;7.40;99.90;;;;;;5055454;28;20024;-85
2021/10/25 02:25:53;;;;;;;3.97;2.63;;;7.40;99.90;;;;;;5073425;28;20020;-85
2021/10/25 02:28:20;;;;;;;4.47;2.20;;;7.50;99.90;;;;;;5055456;28;20372;-84
2021/10/25 02:30:47;;;;;;;3.85;2.40;;;7.70;99.90;;;;;;5055278;28;20039;-84
2021/10/25 02:33:13;;;;;;;3.55;2.15;;;7.40;99.90;;;;;;5073326;28;20016;-84
2021/10/25 02:35:39;;;;;;;2.33;2.00;;;7.30;99.90;;;;;;5055355;28;20116;-85
2021/10/25 02:38:04;;;;;;;3.65;2.33;;;7.50;99.90;;;;;;5055442;28;20074;-85
2021/10/25 02:40:31;;;;;;;4.00;2.15;;;7.60;99.90;;;;;;5055189;28;20369;-85
2021/10/25 02:42:57;;;;;;;3.33;1.95;;;8.00;99.90;;;;;;5073170;28;20480;-85
2021/10/25 02:45:23;;;;;;;3.30;2.05;;;8.00;99.90;;;;;;5055289;28;20025;-85
2021/10/25 02:47:49;;;;;;;2.47;2.17;;;7.90;99.90;;;;;;5055166;28;20085;-85
2021/10/25 02:50:15;;;;;;;3.58;2.35;;;7.70;99.90;;;;;;5073082;28;20095;-84
2021/10/25 02:52:41;;;;;;;4.05;2.38;;;7.80;99.90;;;;;;5055103;28;20435;-85
2021/10/25 02:55:07;;;;;;;3.75;2.53;;;7.50;99.90;;;;;;5055081;28;20074;-85
2021/10/25 02:57:33;;;;;;;3.13;2.30;;;7.70;99.90;;;;;;5072434;28;20041;-85
2021/10/25 02:59:59;;;;;;;3.50;2.20;;;7.80;99.90;;;;;;5054867;28;20132;-85
2021/10/25 03:02:25;;;;;;;3.70;2.30;;;7.80;99.90;;;;;;5054917;28;20052;-85
2021/10/25 03:04:51;;;;;;;3.10;2.38;;;7.80;99.90;;;;;;5054984;28;20025;-84
2021/10/25 03:07:16;;;;;;;4.30;2.42;;;8.00;99.90;;;;;;5054948;28;20028;-85
2021/10/25 03:09:43;;;;;;;4.32;1.92;;;7.60;99.90;;;;;;5054872;28;20373;-84
2021/10/25 03:12:08;;;;;;;2.53;2.03;;;7.60;99.90;;;;;;5054815;28;20048;-84
2021/10/25 03:14:34;;;;;;;5.82;2.42;;;7.80;99.90;;;;;;5055113;28;20052;-85
2021/10/25 03:17:00;;;;;;;4.32;2.42;;;7.90;99.90;;;;;;5054830;28;20411;-84
2021/10/25 03:19:27;;;;;;;2.92;2.33;;;7.80;99.90;;;;;;5054973;28;20126;-85
2021/10/25 03:21:52;;;;;;;3.78;2.40;;;7.40;99.90;;;;;;5072992;28;20022;-85
2021/10/25 03:24:18;;;;;;;4.57;2.00;;;7.10;99.90;;;;;;5054879;28;20051;-85
2021/10/25 03:26:44;;;;;;;3.33;2.25;;;7.20;99.90;;;;;;5054777;28;20441;-85
2021/10/25 03:29:10;;;;;;;3.00;2.30;;;7.20;99.90;;;;;;5072909;28;20025;-85
2021/10/25 03:31:36;;;;;;;4.60;2.10;;;7.30;99.90;;;;;;5054684;28;20035;-85
2021/10/25 03:34:02;;;;;;;7.70;2.67;;;7.30;99.90;;;;;;5054731;28;20108;-85
2021/10/25 03:36:30;;;;;;;3.25;2.22;;;7.50;99.90;;;;;;5072655;28;20126;-84
2021/10/25 03:38:57;;;;;;;4.30;2.30;;;7.40;99.90;;;;;;5054664;28;20017;-85
2021/10/25 03:41:33;;;;;;;4.68;2.40;;;7.00;99.90;;;;;;5072744;28;20108;-85
2021/10/25 03:44:08;;;;;;;5.15;2.15;;;6.80;99.90;;;;;;5054673;28;20029;-85
2021/10/25 03:46:41;;;;;;;2.75;2.17;;;7.10;99.90;;;;;;5054587;28;20459;-85
2021/10/25 03:49:20;;;;;;;6.00;2.42;;;7.40;99.90;;;;;;5072858;28;20432;-85
2021/10/25 03:51:46;;;;;;;3.97;2.35;;;7.10;99.90;;;;;;5054426;28;20031;-85
2021/10/25 03:54:29;;;;;;;3.75;2.20;;;7.20;99.90;;;;;;5054455;28;20017;-85
2021/10/25 04:26:58;;;;;;;3.47;2.35;;;6.90;99.90;;;;;;5076189;28;20180;-85
2021/10/25 04:29:27;;;;;;;3.58;2.25;;;7.00;99.90;;;;;;5057731;28;20048;-85
2021/10/25 04:31:53;;;;;;;3.33;2.20;;;7.00;99.90;;;;;;5075682;28;20133;-85
2021/10/25 04:34:19;;;;;;;3.95;2.50;;;6.60;99.90;;;;;;5057726;28;20441;-85
2021/10/25 04:36:45;;;;;;;3.33;2.33;;;6.30;99.90;;;;;;5057833;28;20396;-85
2021/10/25 04:39:13;;;;;;;3.28;2.30;;;6.20;99.90;;;;;;5057723;28;20017;-85
2021/10/25 04:41:40;;;;;;;2.97;2.13;;;6.40;99.90;;;;;;5057579;28;20035;-85
2021/10/25 04:44:06;;;;;;;3.75;2.28;;;6.90;99.90;;;;;;5058157;28;20021;-84
2021/10/25 04:46:33;;;;;;;7.45;2.15;;;7.00;99.90;;;;;;5057445;28;20033;-85
2021/10/25 04:48:59;;;;;;;4.47;2.47;;;6.70;99.90;;;;;;5057413;28;20036;-85
2021/10/25 04:51:25;;;;;;;4.20;2.10;;;6.70;99.90;;;;;;5057852;28;20028;-85
2021/10/25 04:53:51;;;;;;;4.80;3.38;;;6.30;99.90;;;;;;5057860;28;20366;-85
2021/10/25 04:56:17;;;;;;;7.32;3.17;;;6.10;99.90;;;;;;5075548;28;20036;-85
2021/10/25 04:58:43;;;;;;;8.38;2.83;;;6.10;99.90;;;;;;5057839;28;20498;-85
2021/10/25 05:01:08;;;;;;;4.38;2.50;;;6.20;99.90;;;;;;5075529;28;20090;-85
2021/10/25 05:03:36;;;;;;;6.40;2.55;;;6.00;99.90;;;;;;5057117;28;20028;-85
2021/10/25 05:06:03;;;;;;;7.45;2.70;;;5.90;99.90;;;;;;5057013;28;20035;-85
2021/10/25 05:08:29;;;;;;;3.20;2.25;;;5.90;99.90;;;;;;5057360;28;20029;-85
2021/10/25 05:10:56;;;;;;;3.85;2.20;;;6.00;99.90;;;;;;5057277;28;20392;-84
2021/10/25 05:13:22;;;;;;;2.97;2.03;;;5.60;99.90;;;;;;5075259;28;20077;-85
2021/10/25 05:15:47;;;;;;;4.28;2.53;;;6.00;99.90;;;;;;5075407;28;20029;-85
2021/10/25 05:18:13;;;;;;;2.92;1.85;;;6.10;99.90;;;;;;5056991;28;20021;-85
2021/10/25 05:20:40;;;;;;;2.55;1.88;;;6.00;99.90;;;;;;5056527;28;20016;-84
2021/10/25 05:23:07;;;;;;;3.10;2.20;;;6.30;99.90;;;;;;5057046;28;20027;-85
2021/10/25 05:25:33;;;;;;;6.80;2.13;;;6.40;99.90;;;;;;5056967;28;20122;-85
2021/10/25 05:27:59;;;;;;;5.32;2.28;;;6.50;99.90;;;;;;5056783;28;20116;-85
2021/10/25 05:30:25;;;;;;;3.60;2.08;;;6.60;99.90;;;;;;5057255;28;20029;-85
2021/10/25 05:32:51;;;;;;;3.55;2.15;;;6.60;99.90;;;;;;5056694;28;20452;-84
2021/10/25 05:35:16;;;;;;;3.25;2.20;;;6.50;99.90;;;;;;5074871;28;20095;-84
2021/10/25 05:37:42;;;;;;;3.58;2.20;;;6.60;99.90;;;;;;5057408;28;20048;-84
2021/10/25 05:40:08;;;;;;;3.53;2.03;;;6.30;99.90;;;;;;5057616;28;20123;-84
2021/10/25 05:42:34;;;;;;;5.05;3.05;;;6.90;99.90;;;;;;5056760;28;20025;-84
2021/10/25 05:45:04;;;;;;;5.10;2.20;;;7.10;99.90;;;;;;5057688;28;20115;-84
2021/10/25 05:47:29;;;;;;;4.53;3.10;;;6.90;99.90;;;;;;5056705;28;20027;-87
2021/10/25 05:49:55;;;;;;;5.90;3.05;;;6.70;99.90;;;;;;5057250;28;20458;-84
2021/10/25 05:52:21;;;;;;;3.90;2.70;;;6.10;99.90;;;;;;5056218;28;20028;-84
2021/10/25 05:54:48;;;;;;;5.93;2.83;;;5.60;99.90;;;;;;5056363;28;20016;-84
2021/10/25 05:57:16;;;;;;;5.30;2.45;;;5.60;99.90;;;;;;5056168;28;20503;-84
2021/10/25 05:59:42;;;;;;;3.17;2.20;;;5.80;99.90;;;;;;5055821;28;20036;-84
2021/10/25 06:02:24;;;;;;;4.32;2.90;;;6.10;99.90;;;;;;5056187;28;20051;-84
2021/10/25 06:04:50;;;;;;;4.30;2.42;;;6.50;99.90;;;;;;5055971;28;20031;-83
2021/10/25 06:07:16;;;;;;;6.25;2.50;;;6.80;99.90;;;;;;5055970;28;20025;-84
2021/10/25 06:09:43;;;;;;;9.45;3.05;;;7.00;99.90;;;;;;5073777;28;20028;-83
2021/10/25 06:12:14;;;;;;;6.78;2.85;;;7.10;99.90;;;;;;5055804;28;20078;-84
2021/10/25 06:14:43;;;;;;;4.97;2.55;;;7.20;99.90;;;;;;5056078;28;20051;-85
2021/10/25 06:19:53;;;;;;;3.15;2.20;;;6.60;99.90;;;;;;5074423;28;20077;-84
2021/10/25 06:22:19;;;;;;;4.82;2.78;;;6.80;99.90;;;;;;5056034;28;20036;-84
2021/10/25 06:24:49;;;;;;;3.75;2.25;;;7.10;99.90;;;;;;5055752;28;20028;-84
2021/10/25 06:27:15;;;;;;;3.97;3.00;;;7.10;99.90;;;;;;5039173;28;20036;-84
2021/10/25 06:29:41;;;;;;;19.25;7.97;;;7.10;99.90;;;;;;5073559;28;20056;-84
2021/10/25 06:32:07;;;;;;;6.57;3.17;;;6.60;99.90;;;;;;5072509;28;20078;-85
2021/10/25 06:34:41;;;;;;;8.13;3.20;;;6.70;99.90;;;;;;5055810;28;20016;-84
2021/10/25 06:37:08;;;;;;;9.00;3.17;;;7.00;99.90;;;;;;5055390;28;20025;-84
2021/10/25 06:39:42;;;;;;;6.00;3.20;;;6.90;99.90;;;;;;5055291;28;20031;-85
2021/10/25 06:42:09;;;;;;;4.88;3.10;;;7.00;99.90;;;;;;5055261;28;20107;-85
2021/10/25 06:47:22;;;;;;;6.90;3.90;;;6.60;99.90;;;;;;5073545;28;20526;-84
2021/10/25 06:49:48;;;;;;;6.70;3.75;;;6.60;99.90;;;;;;5055310;28;20480;-87
2021/10/25 06:52:14;;;;;;;8.82;3.83;;;6.70;99.90;;;;;;5055917;28;20028;-84
2021/10/25 06:54:40;;;;;;;7.20;4.50;;;6.70;99.90;;;;;;5073192;28;20028;-86
2021/10/25 06:57:06;;;;;;;16.50;6.78;;;6.60;99.90;;;;;;5055305;28;20025;-86
2021/10/25 06:59:35;;;;;;;6.70;4.25;;;6.80;99.90;;;;;;5055079;28;20492;-86
2021/10/25 07:02:01;;;;;;;6.32;3.65;;;7.20;99.90;;;;;;5055207;28;20024;-85
2021/10/25 07:04:26;;;;;;;6.47;3.95;;;7.40;99.90;;;;;;5073342;28;20031;-85
2021/10/25 07:06:54;;;;;;;9.38;4.07;;;7.10;99.90;;;;;;5055089;28;20025;-85
2021/10/25 07:09:20;;;;;;;8.57;5.32;;;7.30;99.90;;;;;;5055066;28;20449;-86
2021/10/25 07:11:46;;;;;;;14.98;8.38;;;6.90;99.90;;;;;;5072856;28;20017;-86
2021/10/25 07:14:15;;;;;;;19.23;8.77;;;6.90;99.90;;;;;;5072982;28;20020;-85
2021/10/25 07:19:30;;;;;;;28.48;13.15;;;7.10;99.90;;;;;;5072966;28;20095;-86
2021/10/25 08:05:41;;;;;;;13.52;5.90;;;7.20;99.90;;;;;;5076899;28;20033;-87
2021/10/25 08:11:00;;;;;;;;;;;7.10;99.90;;;;;;5077368;28;20035;-87
2021/10/25 08:13:31;;;;;;;11.25;5.90;;;7.20;99.90;;;;;;5076737;28;19915;-86
2021/10/25 08:15:58;;;;;;;12.20;6.00;;;7.10;99.90;;;;;;5058349;28;20484;-87
2021/10/25 08:20:50;;;;;;;6.13;4.28;;;7.30;99.90;;;;;;5076092;28;20039;-87
2021/10/25 08:23:15;;;;;;;7.18;3.13;;;7.30;99.90;;;;;;5058074;28;20474;-86
2021/10/25 08:25:41;;;;;;;9.05;4.10;;;7.30;99.90;;;;;;5076587;28;20100;-86
2021/10/25 08:28:11;;;;;;;7.90;3.58;;;7.40;99.90;;;;;;5077419;28;20027;-87
2021/10/25 08:30:37;;;;;;;5.97;3.42;;;7.70;99.90;;;;;;5060520;28;20028;-87
2021/10/25 08:34:04;;;;;;;5.30;2.90;;;7.90;99.90;;;;;;5060893;28;20074;-87
2021/10/25 08:35:52;;;;;;;4.72;3.15;;;8.00;99.90;;;;;;5066574;28;20506;-87
2021/10/25 08:41:04;;;;;;;6.32;3.17;;;7.90;99.90;;;;;;5076327;28;20124;-86
2021/10/25 08:43:31;;;;;;;11.27;3.58;;;8.00;99.90;;;;;;5075550;28;20095;-87
2021/10/25 08:45:59;;;;;;;18.80;8.55;;;8.40;99.90;;;;;;5075613;28;20032;-87
2021/10/25 08:48:26;;;;;;;9.02;5.15;;;8.40;99.90;;;;;;5057359;28;20025;-87
2021/10/25 08:50:52;;;;;;;9.85;5.00;;;8.60;99.90;;;;;;5057161;28;20029;-86
2021/10/25 08:53:18;;;;;;;10.07;4.40;;;8.80;99.90;;;;;;5057362;28;20043;-87
2021/10/25 08:55:50;;;;;;;8.15;4.40;;;8.70;99.90;;;;;;5056369;28;20527;-84
2021/10/25 08:58:16;;;;;;;9.93;4.18;;;8.90;99.90;;;;;;5057549;28;20020;-87
2021/10/25 09:00:50;;;;;;;6.65;3.20;;;9.10;99.90;;;;;;5057561;28;20048;-86
2021/10/25 09:03:17;;;;;;;;;;;9.60;99.90;;;;;;5076242;28;20020;-87
2021/10/25 09:06:00;;;;;;;10.02;3.83;;;10.20;99.90;;;;;;5057342;28;20379;-86
2021/10/25 09:08:29;;;;;;;9.18;3.70;;;10.80;99.90;;;;;;5057756;28;20392;-86
2021/10/25 09:10:57;;;;;;;10.10;3.75;;;11.20;99.90;;;;;;5058597;28;20048;-87
2021/10/25 09:13:28;;;;;;;12.13;3.65;;;11.40;99.90;;;;;;5057136;28;20129;-87
2021/10/25 09:15:57;;;;;;;6.32;3.13;;;11.40;99.90;;;;;;5057184;28;20028;-87
2021/10/25 09:18:25;;;;;;;6.95;2.92;;;11.60;99.90;;;;;;5057085;28;20078;-87
2021/10/25 09:21:02;;;;;;;8.07;3.05;;;11.60;99.90;;;;;;5057130;28;20017;-86
2021/10/25 09:23:35;;;;;;;5.38;3.13;;;11.40;99.90;;;;;;5057020;28;20392;-87
2021/10/25 09:26:07;;;;;;;9.48;5.00;;;11.60;99.90;;;;;;5057117;28;20021;-86
2021/10/25 09:28:40;;;;;;;11.00;5.38;;;11.60;99.90;;;;;;5056930;28;20020;-87
2021/10/25 09:31:12;;;;;;;7.97;3.00;;;11.50;99.90;;;;;;5056767;28;20033;-85
2021/10/25 09:33:40;;;;;;;6.65;3.22;;;11.60;99.90;;;;;;5057075;28;20020;-86
2021/10/25 09:36:12;;;;;;;10.55;3.25;;;11.60;99.90;;;;;;5040366;28;20024;-87
2021/10/25 09:49:00;;;;;;;8.00;2.95;;;11.40;99.90;;;;;;5074830;28;20044;-87
2021/10/25 09:49:28;;;;;;;6.75;3.22;;;11.20;99.90;;;;;;5074491;28;20119;-87
2021/10/25 09:51:56;;;;;;;10.95;3.47;;;11.00;99.90;;;;;;5056289;28;20025;-87
2021/10/25 09:54:28;;;;;;;9.40;3.85;;;10.90;99.90;;;;;;5074477;28;20017;-86
2021/10/25 09:57:03;;;;;;;6.78;3.40;;;10.90;99.90;;;;;;5056511;28;20077;-86
2021/10/25 09:59:53;;;;;;;9.32;3.00;;;11.00;99.90;;;;;;5052750;28;20481;-86
2021/10/25 10:02:21;;;;;;;11.75;4.55;;;11.20;99.90;;;;;;5053134;28;20029;-86
2021/10/25 10:04:50;;;;;;;6.22;3.88;;;11.80;99.90;;;;;;5053035;28;20040;-86
2021/10/25 10:07:16;;;;;;;6.90;3.20;;;12.20;99.90;;;;;;5052739;28;20052;-86
2021/10/25 10:09:46;;;;;;;7.80;3.70;;;12.60;99.90;;;;;;5052905;28;20484;-86
2021/10/25 10:12:20;;;;;;;7.43;3.42;;;13.20;99.90;;;;;;5053341;28;20107;-87
2021/10/25 10:14:54;;;;;;;8.35;3.45;;;13.50;99.90;;;;;;5054147;28;20020;-86
2021/10/25 10:17:34;;;;;;;8.77;2.78;;;14.10;99.90;;;;;;5052765;28;20123;-87
2021/10/25 10:20:14;;;;;;;7.82;3.00;;;14.70;99.90;;;;;;5052783;28;20040;-87
2021/10/25 10:22:45;;;;;;;4.90;2.60;;;15.50;99.90;;;;;;5052599;28;20054;-87
2021/10/25 10:25:11;;;;;;;8.20;2.97;;;15.90;99.90;;;;;;5052458;28;20079;-87
2021/10/25 10:27:37;;;;;;;7.47;3.00;;;16.60;99.90;;;;;;5052470;28;20029;-85
2021/10/25 10:30:10;;;;;;;8.02;3.15;;;16.50;99.90;;;;;;5052464;28;20033;-84
2021/10/25 10:32:35;;;;;;;6.95;2.75;;;15.70;99.90;;;;;;5052791;28;20082;-84
2021/10/25 10:35:04;;;;;;;8.05;3.40;;;15.60;99.90;;;;;;5052224;28;20431;-84
2021/10/25 10:37:32;;;;;;;7.25;3.28;;;15.20;99.90;;;;;;5052408;28;20028;-85
2021/10/25 10:40:01;;;;;;;4.30;2.67;;;15.40;99.90;;;;;;5052852;28;20388;-85
2021/10/25 10:42:28;;;;;;;6.03;3.40;;;15.90;99.90;;;;;;5056195;28;20412;-85
2021/10/25 10:45:00;;;;;;;8.77;3.25;;;16.40;99.90;;;;;;5058179;28;20439;-85
2021/10/25 10:47:39;;;;;;;10.48;3.28;;;17.10;99.90;;;;;;5053406;28;20078;-85
2021/10/25 10:50:18;;;;;;;7.10;3.40;;;17.80;99.90;;;;;;5052641;28;20029;-85
2021/10/25 10:52:50;;;;;;;8.70;3.65;;;18.20;99.90;;;;;;5052252;28;20480;-85
2021/10/25 10:55:22;;;;;;;9.20;5.22;;;18.70;99.90;;;;;;5053518;28;20021;-85
2021/10/25 11:00:22;;;;;;;5.25;3.13;;;18.40;99.90;;;;;;5067160;28;20037;-84
2021/10/25 11:03:13;;;;;;;6.50;3.42;;;18.60;99.90;;;;;;5055832;28;20022;-85
2021/10/25 11:05:50;;;;;;;5.20;2.30;;;18.90;99.50;;;;;;5055486;28;20033;-86
2021/10/25 11:08:20;;;;;;;4.50;1.73;;;19.70;97.20;;;;;;5039711;28;20032;-86
2021/10/25 11:10:48;;;;;;;4.03;2.20;;;20.00;93.40;;;;;;5055115;28;20031;-86
2021/10/25 11:13:23;;;;;;;4.03;1.80;;;20.10;94.00;;;;;;5055055;28;20028;-86
2021/10/25 11:16:08;;;;;;;5.10;2.05;;;20.70;92.60;;;;;;5055249;28;20464;-86
2021/10/25 11:18:37;;;;;;;2.60;1.60;;;20.80;92.30;;;;;;5059265;28;20544;-86
2021/10/25 11:21:27;;;;;;;5.20;2.10;;;21.10;90.80;;;;;;5061514;28;20028;-86
2021/10/25 11:23:57;;;;;;;3.67;1.63;;;20.90;90.40;;;;;;5061788;28;20024;-86
2021/10/25 11:26:39;;;;;;;2.17;1.45;;;21.40;90.00;;;;;;5079710;28;20070;-86
2021/10/25 11:29:14;;;;;;;4.93;1.80;;;21.70;85.20;;;;;;5079618;28;20044;-86
2021/10/25 11:31:48;;;;;;;7.80;2.70;;;22.00;85.50;;;;;;5061743;28;20030;-86
2021/10/25 11:34:19;;;;;;;2.90;1.25;;;22.00;82.10;;;;;;5061662;28;20024;-86
2021/10/25 11:37:06;;;;;;;2.63;1.40;;;22.30;81.90;;;;;;5079654;28;20020;-87
2021/10/25 11:39:40;;;;;;;2.88;1.45;;;21.50;80.00;;;;;;5061507;28;20499;-86
2021/10/25 11:42:08;;;;;;;5.70;1.10;;;20.90;79.00;;;;;;5061521;28;20040;-86
2021/10/25 11:44:34;;;;;;;3.05;1.33;;;21.40;80.00;;;;;;5045117;28;20119;-86
2021/10/25 11:47:01;;;;;;;2.80;1.58;;;21.50;79.90;;;;;;5061461;28;20495;-86
2021/10/25 11:49:27;;;;;;;3.55;1.20;;;22.10;78.50;;;;;;5061384;28;20025;-86
2021/10/25 11:51:55;;;;;;;3.40;1.20;;;22.30;77.00;;;;;;5061643;28;20060;-87
2021/10/25 11:54:23;;;;;;;2.88;1.20;;;22.40;76.50;;;;;;5061642;28;20546;-86
2021/10/25 11:56:52;;;;;;;3.53;1.38;;;22.50;76.60;;;;;;5061269;28;20400;-86
2021/10/25 11:59:18;;;;;;;2.20;1.40;;;22.60;75.80;;;;;;5061232;28;20040;-86
2021/10/25 12:01:45;;;;;;;3.40;1.42;;;22.70;76.30;;;;;;5061424;28;20028;-86
2021/10/25 12:04:12;;;;;;;4.15;1.30;;;22.70;77.60;;;;;;5061240;28;20031;-87
2021/10/25 12:06:39;;;;;;;2.13;1.42;;;23.10;75.80;;;;;;5045013;28;20049;-86
2021/10/25 12:09:09;;;;;;;3.05;1.23;;;23.40;75.10;;;;;;5061373;28;20036;-86
2021/10/25 12:12:02;;;;;;;1.65;1.15;;;23.90;72.80;;;;;;5061278;28;20573;-86
2021/10/25 12:14:33;;;;;;;5.28;1.50;;;23.80;70.70;;;;;;5063032;28;20479;-86
2021/10/25 12:16:59;;;;;;;2.38;1.30;;;24.20;73.00;;;;;;5061359;28;20532;-85
2021/10/25 12:19:27;;;;;;;4.28;1.23;;;23.70;71.40;;;;;;5061056;28;20483;-86
2021/10/25 12:21:53;;;;;;;2.20;1.15;;;24.50;70.00;;;;;;5061252;28;20079;-86
2021/10/25 12:24:21;;;;;;;2.03;1.08;;;24.70;69.70;;;;;;5061295;28;20023;-86
2021/10/25 12:27:01;;;;;;;5.63;1.05;;;25.40;68.80;;;;;;5060880;28;20052;-86
2021/10/25 12:29:27;;;;;;;5.05;1.23;;;25.30;68.30;;;;;;5041719;28;20074;-86
2021/10/25 12:32:11;;;;;;;3.08;1.15;;;26.10;67.80;;;;;;5058227;28;20033;-86
2021/10/25 12:34:57;;;;;;;1.65;1.17;;;26.90;66.60;;;;;;5058062;28;20070;-86
2021/10/25 12:37:28;;;;;;;4.50;1.30;;;27.00;65.10;;;;;;5057674;28;20024;-86
2021/10/25 12:39:58;;;;;;;4.70;1.83;;;26.50;67.10;;;;;;5058071;28;20103;-86
2021/10/25 12:42:26;;;;;;;4.43;1.50;;;25.80;68.40;;;;;;5058247;28;20506;-86
2021/10/25 12:44:55;;;;;;;5.72;1.63;;;25.90;68.20;;;;;;5058505;28;20035;-86
2021/10/25 12:47:25;;;;;;;8.20;1.48;;;25.80;69.70;;;;;;5058061;28;20111;-87
2021/10/25 12:49:57;;;;;;;6.80;1.70;;;25.90;69.40;;;;;;5058354;28;20025;-85
2021/10/25 12:52:29;;;;;;;2.90;0.98;;;26.50;69.10;;;;;;5041361;28;20039;-86
2021/10/25 12:55:00;;;;;;;2.97;1.38;;;26.90;66.10;;;;;;5059932;28;20056;-86
2021/10/25 12:57:33;;;;;;;5.07;1.73;;;27.00;65.90;;;;;;5059002;28;20388;-86
2021/10/25 13:00:19;;;;;;;3.80;1.45;;;26.40;67.00;;;;;;5057497;28;20553;-86
2021/10/25 13:02:48;;;;;;;2.65;1.60;;;25.60;68.10;;;;;;5057953;28;20038;-86
2021/10/25 13:05:21;;;;;;;5.40;1.60;;;26.00;69.00;;;;;;5057191;28;20075;-86
2021/10/25 13:07:51;;;;;;;5.97;1.40;;;26.40;67.10;;;;;;5075275;28;20029;-86
2021/10/25 13:10:24;;;;;;;4.30;1.40;;;26.70;66.90;;;;;;5056972;28;20031;-86
2021/10/25 13:12:50;;;;;;;2.08;1.40;;;26.70;66.80;;;;;;5056881;28;20202;-87
2021/10/25 13:15:17;;;;;;;3.70;1.63;;;26.50;66.70;;;;;;5074916;28;20021;-86
2021/10/25 13:17:43;;;;;;;4.80;1.50;;;27.00;65.40;;;;;;5075166;28;20070;-86
2021/10/25 13:20:11;;;;;;;2.67;1.40;;;27.10;64.20;;;;;;5056926;28;20376;-86
2021/10/25 13:22:37;;;;;;;2.30;1.17;;;27.60;63.40;;;;;;5056862;28;20031;-86
2021/10/25 13:25:04;;;;;;;3.22;1.42;;;28.10;67.50;;;;;;5056765;28;20088;-87
2021/10/25 13:27:30;;;;;;;2.28;1.17;;;28.00;66.00;;;;;;5056972;28;20048;-87
2021/10/25 13:29:55;;;;;;;5.53;1.40;;;27.10;65.80;;;;;;5074755;28;20025;-86
2021/10/25 13:32:23;;;;;;;3.53;1.20;;;26.70;69.50;;;;;;5056979;28;20047;-86
2021/10/25 13:34:49;;;;;;;3.60;1.25;;;27.60;60.40;;;;;;5074731;28;20074;-86
2021/10/25 13:37:15;;;;;;;7.32;1.65;;;27.90;60.30;;;;;;5056759;28;20115;-87
2021/10/25 13:39:40;;;;;;;4.38;1.50;;;28.60;57.50;;;;;;5057273;28;20502;-86
2021/10/25 13:42:06;;;;;;;4.35;0.98;;;27.40;57.30;;;;;;5056225;28;20408;-85
2021/10/25 13:44:32;;;;;;;2.22;1.20;;;25.30;56.50;;;;;;5074785;28;20020;-86
2021/10/25 13:46:58;;;;;;;2.50;1.65;;;23.20;61.80;;;;;;5056485;28;20020;-86
2021/10/25 13:49:24;;;;;;;3.47;1.70;;;21.90;65.40;;;;;;5056550;28;20031;-86
2021/10/25 13:51:50;;;;;;;2.22;1.75;;;20.90;65.90;;;;;;5056392;28;20139;-85
2021/10/25 13:54:16;;;;;;;2.67;1.63;;;20.50;69.80;;;;;;5056410;28;20425;-85
2021/10/25 13:56:43;;;;;;;4.15;1.88;;;19.90;70.80;;;;;;5056134;28;20017;-85
2021/10/25 13:59:08;;;;;;;3.45;1.73;;;19.20;72.90;;;;;;5056349;28;20045;-85
2021/10/25 14:01:34;;;;;;;5.70;1.77;;;18.90;75.80;;;;;;5056440;28;20036;-85
2021/10/25 14:04:01;;;;;;;8.70;1.52;;;18.70;77.90;;;;;;5056339;28;20029;-86
2021/10/25 14:06:30;;;;;;;3.45;1.58;;;18.70;78.90;;;;;;5056523;28;20032;-86
2021/10/25 14:08:56;;;;;;;3.60;1.77;;;18.60;79.50;;;;;;5056080;28;20021;-85
2021/10/25 14:11:26;;;;;;;3.67;1.50;;;18.40;79.90;;;;;;5056022;28;20105;-86
2021/10/25 14:14:12;;;;;;;3.17;1.48;;;18.30;80.10;;;;;;5074023;28;20043;-85
2021/10/25 14:17:11;;;;;;;3.13;1.70;;;18.00;82.20;;;;;;5055941;28;20029;-85
2021/10/25 14:19:30;;;;;;;4.97;1.67;;;17.90;82.00;;;;;;5070986;28;20063;-85
2021/10/25 14:21:59;;;;;;;3.90;1.67;;;17.80;82.90;;;;;;5055891;28;20060;-86
2021/10/25 14:24:25;;;;;;;4.50;1.92;;;17.80;82.70;;;;;;5055889;28;20052;-86
2021/10/25 14:26:51;;;;;;;3.33;1.60;;;17.70;85.10;;;;;;5056176;28;20078;-85
2021/10/25 14:29:18;;;;;;;3.17;1.38;;;17.70;81.50;;;;;;5055880;28;20024;-85
2021/10/25 14:31:47;;;;;;;4.38;1.58;;;18.10;82.20;;;;;;5055445;28;20032;-85
2021/10/25 14:34:14;;;;;;;3.95;1.50;;;19.10;82.70;;;;;;5055684;28;20016;-85
2021/10/25 14:36:42;;;;;;;6.07;1.60;;;20.40;77.30;;;;;;5055567;28;20047;-86
2021/10/25 14:39:21;;;;;;;4.10;1.65;;;21.90;75.00;;;;;;5073540;28;20020;-86
2021/10/25 14:42:04;;;;;;;5.07;1.50;;;22.60;70.80;;;;;;5074145;28;20097;-86